Terminal Aerodrome Forecast
Issued by NWS Wilmington, OH

Current Version | Previous Version | Graphics & Text | Print | Product List | Glossary On
Versions: 1 2 3 4 5 6 7 8 9 10 11 12 13 14 15 16 17 18 19 20 21 22 23
000
FTUS41 KILN 161300 AAA
TAFDAY
TAF AMD
KDAY 161336Z 1614/1712 24012KT P6SM -SHRA OVC008
     FM161500 25014G24KT P6SM -SHRA OVC008
     FM161700 25014G24KT P6SM VCSH OVC012
     FM162000 25013G20KT P6SM OVC015=

USA.gov is the U.S. government's official web portal to all federal, state and local government web resources and services.